Oskaloosa, Iowa
Current Conditions -  °F | °C
As of 2:35 AM on Saturday 25 Oct 2014 (Local Time) from KOOA Reporting Station
Moderate Fog Moderate Fog  
Wind Chill: 51°   Ceiling: 100
Heat Index: 51°   Visibility: 0.25mi
Dew Point: 50°   Wind: 7mph
Humidity: 97%   Direction: 310°NW
Pressure: 29.99"   Gusts: NA
Location:  41.3°N, 92.64°W
Report Text: KOOA 250735Z AUTO 31006KT 1/4SM FG OVC001 11/10 A2999 RMK AO2 P0001 T01050101
Loading
Personal Weather Stations






























Interactive Weather Map
Tropical Storm Tracking
New forecast layout! Learn more

10-Day Weather Forecast

Advertisements
Track Severe Weather on mobile